sensor_id;sensor_type;location;lat;lon;timestamp;P1;durP1;ratioP1;P2;durP2;ratioP2
16878;SDS011;8556;52.218;9.884;2023-05-07T00:02:14;38.33;;;23.40;;
16878;SDS011;8556;52.218;9.884;2023-05-07T00:04:41;40.07;;;23.50;;
16878;SDS011;8556;52.218;9.884;2023-05-07T00:07:09;38.13;;;23.43;;
16878;SDS011;8556;52.218;9.884;2023-05-07T00:09:35;41.27;;;23.70;;
16878;SDS011;8556;52.218;9.884;2023-05-07T00:12:02;43.77;;;25.37;;
16878;SDS011;8556;52.218;9.884;2023-05-07T00:14:29;39.40;;;23.87;;
16878;SDS011;8556;52.218;9.884;2023-05-07T00:16:57;41.80;;;23.80;;
16878;SDS011;8556;52.218;9.884;2023-05-07T00:19:24;44.50;;;25.63;;
16878;SDS011;8556;52.218;9.884;2023-05-07T00:21:51;43.40;;;24.60;;
16878;SDS011;8556;52.218;9.884;2023-05-07T00:24:18;45.70;;;24.90;;
16878;SDS011;8556;52.218;9.884;2023-05-07T00:26:45;39.03;;;23.30;;
16878;SDS011;8556;52.218;9.884;2023-05-07T00:29:12;43.10;;;25.27;;
16878;SDS011;8556;52.218;9.884;2023-05-07T00:31:39;45.83;;;24.93;;
16878;SDS011;8556;52.218;9.884;2023-05-07T00:34:07;40.20;;;24.07;;
16878;SDS011;8556;52.218;9.884;2023-05-07T00:36:33;43.40;;;24.33;;
16878;SDS011;8556;52.218;9.884;2023-05-07T00:39:00;42.23;;;24.27;;
16878;SDS011;8556;52.218;9.884;2023-05-07T00:41:28;43.13;;;22.73;;
16878;SDS011;8556;52.218;9.884;2023-05-07T00:43:55;43.57;;;23.30;;
16878;SDS011;8556;52.218;9.884;2023-05-07T00:46:23;42.73;;;23.00;;
16878;SDS011;8556;52.218;9.884;2023-05-07T00:48:50;45.73;;;23.93;;
16878;SDS011;8556;52.218;9.884;2023-05-07T00:51:19;45.37;;;24.63;;
16878;SDS011;8556;52.218;9.884;2023-05-07T00:53:46;41.47;;;21.97;;
16878;SDS011;8556;52.218;9.884;2023-05-07T00:56:13;46.73;;;25.97;;
16878;SDS011;8556;52.218;9.884;2023-05-07T00:58:40;45.90;;;21.93;;
16878;SDS011;8556;52.218;9.884;2023-05-07T01:01:07;46.43;;;24.37;;
16878;SDS011;8556;52.218;9.884;2023-05-07T01:03:34;45.67;;;23.00;;
16878;SDS011;8556;52.218;9.884;2023-05-07T01:06:01;45.87;;;25.27;;
16878;SDS011;8556;52.218;9.884;2023-05-07T01:08:32;44.43;;;23.67;;
16878;SDS011;8556;52.218;9.884;2023-05-07T01:11:00;44.27;;;22.97;;
16878;SDS011;8556;52.218;9.884;2023-05-07T01:13:27;45.00;;;23.37;;
16878;SDS011;8556;52.218;9.884;2023-05-07T01:15:54;41.33;;;22.83;;
16878;SDS011;8556;52.218;9.884;2023-05-07T01:18:21;46.27;;;23.03;;
16878;SDS011;8556;52.218;9.884;2023-05-07T01:20:48;43.43;;;23.87;;
16878;SDS011;8556;52.218;9.884;2023-05-07T01:23:16;45.03;;;23.17;;
16878;SDS011;8556;52.218;9.884;2023-05-07T01:25:50;40.97;;;23.40;;
16878;SDS011;8556;52.218;9.884;2023-05-07T01:28:17;44.53;;;22.87;;
16878;SDS011;8556;52.218;9.884;2023-05-07T01:30:44;39.57;;;21.33;;
16878;SDS011;8556;52.218;9.884;2023-05-07T01:33:14;39.40;;;21.10;;
16878;SDS011;8556;52.218;9.884;2023-05-07T01:35:45;42.23;;;23.07;;
16878;SDS011;8556;52.218;9.884;2023-05-07T01:38:16;38.93;;;20.80;;
16878;SDS011;8556;52.218;9.884;2023-05-07T01:40:44;40.97;;;21.60;;
16878;SDS011;8556;52.218;9.884;2023-05-07T01:43:11;37.73;;;20.47;;
16878;SDS011;8556;52.218;9.884;2023-05-07T01:45:38;37.60;;;20.97;;
16878;SDS011;8556;52.218;9.884;2023-05-07T01:48:06;41.13;;;20.73;;
16878;SDS011;8556;52.218;9.884;2023-05-07T01:50:37;37.87;;;20.43;;
16878;SDS011;8556;52.218;9.884;2023-05-07T01:53:05;34.90;;;18.70;;
16878;SDS011;8556;52.218;9.884;2023-05-07T01:55:33;34.37;;;17.57;;
16878;SDS011;8556;52.218;9.884;2023-05-07T01:58:01;34.57;;;18.20;;
16878;SDS011;8556;52.218;9.884;2023-05-07T02:00:28;35.13;;;19.80;;
16878;SDS011;8556;52.218;9.884;2023-05-07T02:02:55;32.57;;;17.13;;
16878;SDS011;8556;52.218;9.884;2023-05-07T02:05:22;38.13;;;18.90;;
16878;SDS011;8556;52.218;9.884;2023-05-07T02:07:49;32.43;;;18.13;;
16878;SDS011;8556;52.218;9.884;2023-05-07T02:10:16;30.73;;;16.37;;
16878;SDS011;8556;52.218;9.884;2023-05-07T02:12:44;29.67;;;16.83;;
16878;SDS011;8556;52.218;9.884;2023-05-07T02:15:11;32.83;;;18.67;;
16878;SDS011;8556;52.218;9.884;2023-05-07T02:17:38;30.80;;;18.00;;
16878;SDS011;8556;52.218;9.884;2023-05-07T02:20:23;30.97;;;17.60;;
16878;SDS011;8556;52.218;9.884;2023-05-07T02:22:50;31.13;;;17.17;;
16878;SDS011;8556;52.218;9.884;2023-05-07T02:25:17;32.03;;;17.17;;
16878;SDS011;8556;52.218;9.884;2023-05-07T02:27:45;27.23;;;15.97;;
16878;SDS011;8556;52.218;9.884;2023-05-07T02:30:12;31.60;;;16.83;;
16878;SDS011;8556;52.218;9.884;2023-05-07T02:32:39;27.93;;;17.10;;
16878;SDS011;8556;52.218;9.884;2023-05-07T02:35:06;31.00;;;16.97;;
16878;SDS011;8556;52.218;9.884;2023-05-07T02:37:34;28.20;;;15.50;;
16878;SDS011;8556;52.218;9.884;2023-05-07T02:40:00;27.50;;;16.53;;
16878;SDS011;8556;52.218;9.884;2023-05-07T02:42:28;29.10;;;16.10;;
16878;SDS011;8556;52.218;9.884;2023-05-07T02:44:56;27.03;;;16.40;;
16878;SDS011;8556;52.218;9.884;2023-05-07T02:47:23;27.57;;;16.23;;
16878;SDS011;8556;52.218;9.884;2023-05-07T02:49:51;25.53;;;14.70;;
16878;SDS011;8556;52.218;9.884;2023-05-07T02:52:18;26.87;;;15.20;;
16878;SDS011;8556;52.218;9.884;2023-05-07T02:54:45;27.17;;;15.93;;
16878;SDS011;8556;52.218;9.884;2023-05-07T02:57:12;27.23;;;16.47;;
16878;SDS011;8556;52.218;9.884;2023-05-07T02:59:39;28.97;;;16.30;;
16878;SDS011;8556;52.218;9.884;2023-05-07T03:02:07;29.80;;;16.87;;
16878;SDS011;8556;52.218;9.884;2023-05-07T03:04:34;33.07;;;18.67;;
16878;SDS011;8556;52.218;9.884;2023-05-07T03:07:00;31.60;;;18.63;;
16878;SDS011;8556;52.218;9.884;2023-05-07T03:09:27;34.43;;;20.07;;
16878;SDS011;8556;52.218;9.884;2023-05-07T03:11:56;35.77;;;20.63;;
16878;SDS011;8556;52.218;9.884;2023-05-07T03:14:22;35.93;;;20.20;;
16878;SDS011;8556;52.218;9.884;2023-05-07T03:16:51;35.40;;;18.97;;
16878;SDS011;8556;52.218;9.884;2023-05-07T03:19:19;33.90;;;20.03;;
16878;SDS011;8556;52.218;9.884;2023-05-07T03:21:46;33.50;;;18.37;;
16878;SDS011;8556;52.218;9.884;2023-05-07T03:24:13;31.83;;;18.47;;
16878;SDS011;8556;52.218;9.884;2023-05-07T03:26:39;34.97;;;20.00;;
16878;SDS011;8556;52.218;9.884;2023-05-07T03:29:06;33.67;;;19.73;;
16878;SDS011;8556;52.218;9.884;2023-05-07T03:31:33;32.90;;;20.07;;
16878;SDS011;8556;52.218;9.884;2023-05-07T03:34:00;33.50;;;18.67;;
16878;SDS011;8556;52.218;9.884;2023-05-07T03:36:31;32.07;;;18.60;;
16878;SDS011;8556;52.218;9.884;2023-05-07T03:38:57;32.60;;;19.17;;
16878;SDS011;8556;52.218;9.884;2023-05-07T03:41:24;30.80;;;18.17;;
16878;SDS011;8556;52.218;9.884;2023-05-07T03:43:51;32.17;;;18.90;;
16878;SDS011;8556;52.218;9.884;2023-05-07T03:46:18;30.23;;;17.63;;
16878;SDS011;8556;52.218;9.884;2023-05-07T03:48:45;31.67;;;18.33;;
16878;SDS011;8556;52.218;9.884;2023-05-07T03:51:12;29.00;;;16.57;;
16878;SDS011;8556;52.218;9.884;2023-05-07T03:53:40;33.20;;;18.47;;
16878;SDS011;8556;52.218;9.884;2023-05-07T03:56:06;35.10;;;19.23;;
16878;SDS011;8556;52.218;9.884;2023-05-07T03:58:33;34.03;;;19.27;;
16878;SDS011;8556;52.218;9.884;2023-05-07T04:01:00;30.37;;;18.07;;
16878;SDS011;8556;52.218;9.884;2023-05-07T04:03:27;29.63;;;17.83;;
16878;SDS011;8556;52.218;9.884;2023-05-07T04:05:54;30.67;;;17.03;;
16878;SDS011;8556;52.218;9.884;2023-05-07T04:08:21;29.27;;;16.60;;
16878;SDS011;8556;52.218;9.884;2023-05-07T04:10:52;29.87;;;16.43;;
16878;SDS011;8556;52.218;9.884;2023-05-07T04:13:20;31.43;;;16.63;;
16878;SDS011;8556;52.218;9.884;2023-05-07T04:15:47;30.77;;;16.80;;
16878;SDS011;8556;52.218;9.884;2023-05-07T04:18:15;32.10;;;18.13;;
16878;SDS011;8556;52.218;9.884;2023-05-07T04:20:41;26.13;;;15.27;;
16878;SDS011;8556;52.218;9.884;2023-05-07T04:23:08;31.83;;;18.60;;
16878;SDS011;8556;52.218;9.884;2023-05-07T04:25:35;28.97;;;16.50;;
16878;SDS011;8556;52.218;9.884;2023-05-07T04:28:03;29.97;;;16.83;;
16878;SDS011;8556;52.218;9.884;2023-05-07T04:30:31;26.63;;;15.57;;
16878;SDS011;8556;52.218;9.884;2023-05-07T04:32:57;27.83;;;16.47;;
16878;SDS011;8556;52.218;9.884;2023-05-07T04:35:24;27.07;;;15.00;;
16878;SDS011;8556;52.218;9.884;2023-05-07T04:37:51;25.83;;;15.70;;
16878;SDS011;8556;52.218;9.884;2023-05-07T04:40:18;28.87;;;15.60;;
16878;SDS011;8556;52.218;9.884;2023-05-07T04:42:45;25.23;;;14.53;;
16878;SDS011;8556;52.218;9.884;2023-05-07T04:45:13;26.00;;;14.90;;
16878;SDS011;8556;52.218;9.884;2023-05-07T04:47:40;26.47;;;14.63;;
16878;SDS011;8556;52.218;9.884;2023-05-07T04:50:07;26.60;;;14.57;;
16878;SDS011;8556;52.218;9.884;2023-05-07T04:52:34;28.77;;;15.03;;
16878;SDS011;8556;52.218;9.884;2023-05-07T04:55:01;24.20;;;13.80;;
16878;SDS011;8556;52.218;9.884;2023-05-07T04:57:28;28.43;;;15.33;;
16878;SDS011;8556;52.218;9.884;2023-05-07T04:59:54;28.00;;;15.50;;
16878;SDS011;8556;52.218;9.884;2023-05-07T05:02:23;26.53;;;15.43;;
16878;SDS011;8556;52.218;9.884;2023-05-07T05:04:49;25.80;;;13.53;;
16878;SDS011;8556;52.218;9.884;2023-05-07T05:07:16;24.57;;;13.07;;
16878;SDS011;8556;52.218;9.884;2023-05-07T05:09:43;26.23;;;14.70;;
16878;SDS011;8556;52.218;9.884;2023-05-07T05:12:10;25.80;;;13.93;;
16878;SDS011;8556;52.218;9.884;2023-05-07T05:14:36;24.20;;;12.33;;
16878;SDS011;8556;52.218;9.884;2023-05-07T05:17:03;21.33;;;11.60;;
16878;SDS011;8556;52.218;9.884;2023-05-07T05:19:31;22.60;;;12.03;;
16878;SDS011;8556;52.218;9.884;2023-05-07T05:21:58;21.03;;;11.97;;
16878;SDS011;8556;52.218;9.884;2023-05-07T05:24:26;24.60;;;12.10;;
16878;SDS011;8556;52.218;9.884;2023-05-07T05:26:52;21.47;;;12.47;;
16878;SDS011;8556;52.218;9.884;2023-05-07T05:29:19;19.77;;;11.57;;
16878;SDS011;8556;52.218;9.884;2023-05-07T05:31:46;20.70;;;11.23;;
16878;SDS011;8556;52.218;9.884;2023-05-07T05:34:14;19.50;;;11.27;;
16878;SDS011;8556;52.218;9.884;2023-05-07T05:36:43;20.60;;;10.93;;
16878;SDS011;8556;52.218;9.884;2023-05-07T05:39:10;18.80;;;10.23;;
16878;SDS011;8556;52.218;9.884;2023-05-07T05:41:37;20.83;;;10.83;;
16878;SDS011;8556;52.218;9.884;2023-05-07T05:44:04;17.50;;;10.40;;
16878;SDS011;8556;52.218;9.884;2023-05-07T05:46:31;20.30;;;10.73;;
16878;SDS011;8556;52.218;9.884;2023-05-07T05:48:58;18.93;;;9.30;;
16878;SDS011;8556;52.218;9.884;2023-05-07T05:51:25;19.20;;;10.73;;
16878;SDS011;8556;52.218;9.884;2023-05-07T05:53:53;18.50;;;10.47;;
16878;SDS011;8556;52.218;9.884;2023-05-07T05:56:20;19.03;;;10.40;;
16878;SDS011;8556;52.218;9.884;2023-05-07T05:58:47;17.83;;;9.63;;
16878;SDS011;8556;52.218;9.884;2023-05-07T06:01:14;18.00;;;9.80;;
16878;SDS011;8556;52.218;9.884;2023-05-07T06:03:41;16.93;;;9.20;;
16878;SDS011;8556;52.218;9.884;2023-05-07T06:06:07;16.80;;;9.07;;
16878;SDS011;8556;52.218;9.884;2023-05-07T06:08:34;15.90;;;8.37;;
16878;SDS011;8556;52.218;9.884;2023-05-07T06:11:02;17.40;;;9.57;;
16878;SDS011;8556;52.218;9.884;2023-05-07T06:13:29;15.83;;;8.63;;
16878;SDS011;8556;52.218;9.884;2023-05-07T06:15:56;17.50;;;9.23;;
16878;SDS011;8556;52.218;9.884;2023-05-07T06:18:22;16.90;;;8.77;;
16878;SDS011;8556;52.218;9.884;2023-05-07T06:20:50;16.03;;;8.80;;
16878;SDS011;8556;52.218;9.884;2023-05-07T06:23:17;15.33;;;8.83;;
16878;SDS011;8556;52.218;9.884;2023-05-07T06:25:47;14.60;;;8.13;;
16878;SDS011;8556;52.218;9.884;2023-05-07T06:28:16;15.53;;;7.87;;
16878;SDS011;8556;52.218;9.884;2023-05-07T06:30:43;16.13;;;9.10;;
16878;SDS011;8556;52.218;9.884;2023-05-07T06:33:10;14.53;;;8.27;;
16878;SDS011;8556;52.218;9.884;2023-05-07T06:35:37;12.50;;;7.80;;
16878;SDS011;8556;52.218;9.884;2023-05-07T06:38:03;14.60;;;7.57;;
16878;SDS011;8556;52.218;9.884;2023-05-07T06:40:30;13.97;;;7.93;;
16878;SDS011;8556;52.218;9.884;2023-05-07T06:42:57;11.93;;;8.00;;
16878;SDS011;8556;52.218;9.884;2023-05-07T06:45:27;15.43;;;9.03;;
16878;SDS011;8556;52.218;9.884;2023-05-07T06:47:53;13.00;;;6.63;;
16878;SDS011;8556;52.218;9.884;2023-05-07T06:50:20;12.33;;;7.33;;
16878;SDS011;8556;52.218;9.884;2023-05-07T06:52:47;12.57;;;7.37;;
16878;SDS011;8556;52.218;9.884;2023-05-07T06:55:14;12.47;;;7.27;;
16878;SDS011;8556;52.218;9.884;2023-05-07T06:57:41;13.47;;;7.00;;
16878;SDS011;8556;52.218;9.884;2023-05-07T07:00:08;11.43;;;6.60;;
16878;SDS011;8556;52.218;9.884;2023-05-07T07:02:37;13.93;;;7.97;;
16878;SDS011;8556;52.218;9.884;2023-05-07T07:05:04;12.83;;;7.50;;
16878;SDS011;8556;52.218;9.884;2023-05-07T07:07:32;15.67;;;8.00;;
16878;SDS011;8556;52.218;9.884;2023-05-07T07:09:58;13.23;;;7.30;;
16878;SDS011;8556;52.218;9.884;2023-05-07T07:12:26;15.53;;;7.77;;
16878;SDS011;8556;52.218;9.884;2023-05-07T07:14:53;12.63;;;7.03;;
16878;SDS011;8556;52.218;9.884;2023-05-07T07:17:20;15.27;;;8.80;;
16878;SDS011;8556;52.218;9.884;2023-05-07T07:19:48;14.33;;;7.83;;
16878;SDS011;8556;52.218;9.884;2023-05-07T07:22:15;13.87;;;8.40;;
16878;SDS011;8556;52.218;9.884;2023-05-07T07:24:42;12.47;;;7.63;;
16878;SDS011;8556;52.218;9.884;2023-05-07T07:27:09;13.87;;;8.30;;
16878;SDS011;8556;52.218;9.884;2023-05-07T07:29:36;12.80;;;7.80;;
16878;SDS011;8556;52.218;9.884;2023-05-07T07:32:02;15.70;;;8.93;;
16878;SDS011;8556;52.218;9.884;2023-05-07T07:34:30;16.23;;;9.23;;
16878;SDS011;8556;52.218;9.884;2023-05-07T07:36:58;14.63;;;8.20;;
16878;SDS011;8556;52.218;9.884;2023-05-07T07:39:30;16.27;;;9.87;;
16878;SDS011;8556;52.218;9.884;2023-05-07T07:41:57;13.43;;;8.80;;
16878;SDS011;8556;52.218;9.884;2023-05-07T07:44:23;16.20;;;8.87;;
16878;SDS011;8556;52.218;9.884;2023-05-07T07:46:50;13.90;;;7.70;;
16878;SDS011;8556;52.218;9.884;2023-05-07T07:49:17;13.93;;;8.40;;
16878;SDS011;8556;52.218;9.884;2023-05-07T07:51:44;14.13;;;9.33;;
16878;SDS011;8556;52.218;9.884;2023-05-07T07:54:12;14.63;;;9.50;;
16878;SDS011;8556;52.218;9.884;2023-05-07T07:56:39;14.37;;;8.80;;
16878;SDS011;8556;52.218;9.884;2023-05-07T07:59:06;16.77;;;10.67;;
16878;SDS011;8556;52.218;9.884;2023-05-07T08:01:33;17.17;;;10.60;;
16878;SDS011;8556;52.218;9.884;2023-05-07T08:03:59;16.53;;;10.60;;
16878;SDS011;8556;52.218;9.884;2023-05-07T08:06:28;18.50;;;11.13;;
16878;SDS011;8556;52.218;9.884;2023-05-07T08:08:54;19.20;;;11.70;;
16878;SDS011;8556;52.218;9.884;2023-05-07T08:11:23;19.37;;;12.27;;
16878;SDS011;8556;52.218;9.884;2023-05-07T08:13:50;17.80;;;11.73;;
16878;SDS011;8556;52.218;9.884;2023-05-07T08:16:17;16.90;;;11.43;;
16878;SDS011;8556;52.218;9.884;2023-05-07T08:18:44;17.67;;;11.17;;
16878;SDS011;8556;52.218;9.884;2023-05-07T08:21:11;17.60;;;10.47;;
16878;SDS011;8556;52.218;9.884;2023-05-07T08:23:37;18.33;;;11.00;;
16878;SDS011;8556;52.218;9.884;2023-05-07T08:26:04;15.80;;;10.87;;
16878;SDS011;8556;52.218;9.884;2023-05-07T08:28:32;15.87;;;10.20;;
16878;SDS011;8556;52.218;9.884;2023-05-07T08:30:59;15.17;;;9.87;;
16878;SDS011;8556;52.218;9.884;2023-05-07T08:33:26;15.97;;;9.33;;
16878;SDS011;8556;52.218;9.884;2023-05-07T08:35:53;15.57;;;9.77;;
16878;SDS011;8556;52.218;9.884;2023-05-07T08:38:20;16.17;;;9.90;;
16878;SDS011;8556;52.218;9.884;2023-05-07T08:40:47;14.83;;;9.73;;
16878;SDS011;8556;52.218;9.884;2023-05-07T08:43:14;16.20;;;10.23;;
16878;SDS011;8556;52.218;9.884;2023-05-07T08:45:42;15.13;;;9.67;;
16878;SDS011;8556;52.218;9.884;2023-05-07T08:48:14;15.23;;;9.97;;
16878;SDS011;8556;52.218;9.884;2023-05-07T08:50:41;15.83;;;9.67;;
16878;SDS011;8556;52.218;9.884;2023-05-07T08:53:08;14.80;;;9.50;;
16878;SDS011;8556;52.218;9.884;2023-05-07T08:55:35;15.07;;;8.67;;
16878;SDS011;8556;52.218;9.884;2023-05-07T08:58:02;14.23;;;9.17;;
16878;SDS011;8556;52.218;9.884;2023-05-07T09:00:29;15.67;;;9.50;;
16878;SDS011;8556;52.218;9.884;2023-05-07T09:02:57;16.00;;;9.57;;
16878;SDS011;8556;52.218;9.884;2023-05-07T09:05:24;16.30;;;9.50;;
16878;SDS011;8556;52.218;9.884;2023-05-07T09:07:51;13.03;;;8.70;;
16878;SDS011;8556;52.218;9.884;2023-05-07T09:10:18;14.93;;;9.67;;
16878;SDS011;8556;52.218;9.884;2023-05-07T09:12:46;14.47;;;9.80;;
16878;SDS011;8556;52.218;9.884;2023-05-07T09:15:13;14.70;;;9.73;;
16878;SDS011;8556;52.218;9.884;2023-05-07T09:17:40;15.80;;;10.10;;
16878;SDS011;8556;52.218;9.884;2023-05-07T09:20:09;15.67;;;9.80;;
16878;SDS011;8556;52.218;9.884;2023-05-07T09:22:36;18.27;;;10.63;;
16878;SDS011;8556;52.218;9.884;2023-05-07T09:25:04;18.67;;;10.40;;
16878;SDS011;8556;52.218;9.884;2023-05-07T09:27:32;16.33;;;10.13;;
16878;SDS011;8556;52.218;9.884;2023-05-07T09:29:59;16.83;;;10.47;;
16878;SDS011;8556;52.218;9.884;2023-05-07T09:32:28;15.90;;;10.27;;
16878;SDS011;8556;52.218;9.884;2023-05-07T09:34:56;15.40;;;10.10;;
16878;SDS011;8556;52.218;9.884;2023-05-07T09:37:25;17.60;;;10.83;;
16878;SDS011;8556;52.218;9.884;2023-05-07T09:39:52;17.83;;;11.43;;
16878;SDS011;8556;52.218;9.884;2023-05-07T09:42:22;17.33;;;11.67;;
16878;SDS011;8556;52.218;9.884;2023-05-07T09:44:50;17.87;;;11.37;;
16878;SDS011;8556;52.218;9.884;2023-05-07T09:47:18;17.67;;;11.27;;
16878;SDS011;8556;52.218;9.884;2023-05-07T09:49:47;18.13;;;12.27;;
16878;SDS011;8556;52.218;9.884;2023-05-07T09:52:14;18.50;;;11.73;;
16878;SDS011;8556;52.218;9.884;2023-05-07T09:54:43;20.03;;;12.33;;
16878;SDS011;8556;52.218;9.884;2023-05-07T09:57:13;19.77;;;11.83;;
16878;SDS011;8556;52.218;9.884;2023-05-07T09:59:40;17.37;;;11.40;;
16878;SDS011;8556;52.218;9.884;2023-05-07T10:02:09;20.03;;;12.73;;
16878;SDS011;8556;52.218;9.884;2023-05-07T10:04:37;19.70;;;13.10;;
16878;SDS011;8556;52.218;9.884;2023-05-07T10:07:04;18.03;;;12.43;;
16878;SDS011;8556;52.218;9.884;2023-05-07T10:09:31;18.50;;;12.13;;
16878;SDS011;8556;52.218;9.884;2023-05-07T10:12:05;19.10;;;12.67;;
16878;SDS011;8556;52.218;9.884;2023-05-07T10:14:32;17.73;;;11.40;;
16878;SDS011;8556;52.218;9.884;2023-05-07T10:16:59;17.58;;;11.52;;
16878;SDS011;8556;52.218;9.884;2023-05-07T10:19:27;17.20;;;11.30;;
16878;SDS011;8556;52.218;9.884;2023-05-07T10:21:56;16.93;;;12.03;;
16878;SDS011;8556;52.218;9.884;2023-05-07T10:24:29;16.97;;;10.93;;
16878;SDS011;8556;52.218;9.884;2023-05-07T10:26:59;15.93;;;10.93;;
16878;SDS011;8556;52.218;9.884;2023-05-07T10:29:33;17.73;;;11.33;;
16878;SDS011;8556;52.218;9.884;2023-05-07T10:32:14;20.52;;;11.15;;
16878;SDS011;8556;52.218;9.884;2023-05-07T10:35:06;17.83;;;11.47;;
16878;SDS011;8556;52.218;9.884;2023-05-07T10:37:40;17.67;;;11.80;;
16878;SDS011;8556;52.218;9.884;2023-05-07T10:40:07;17.17;;;11.77;;
16878;SDS011;8556;52.218;9.884;2023-05-07T10:42:36;15.90;;;10.80;;
16878;SDS011;8556;52.218;9.884;2023-05-07T10:45:13;16.63;;;11.23;;
16878;SDS011;8556;52.218;9.884;2023-05-07T10:50:34;16.58;;;11.35;;
16878;SDS011;8556;52.218;9.884;2023-05-07T10:53:20;15.23;;;10.32;;
16878;SDS011;8556;52.218;9.884;2023-05-07T10:55:51;15.40;;;10.63;;
16878;SDS011;8556;52.218;9.884;2023-05-07T10:58:39;17.47;;;11.83;;
16878;SDS011;8556;52.218;9.884;2023-05-07T11:01:06;16.00;;;10.70;;
16878;SDS011;8556;52.218;9.884;2023-05-07T11:03:39;17.00;;;11.77;;
16878;SDS011;8556;52.218;9.884;2023-05-07T11:06:40;15.40;;;10.55;;
16878;SDS011;8556;52.218;9.884;2023-05-07T11:09:07;15.20;;;10.70;;
16878;SDS011;8556;52.218;9.884;2023-05-07T11:11:44;15.83;;;9.83;;
16878;SDS011;8556;52.218;9.884;2023-05-07T11:14:13;15.60;;;10.07;;
16878;SDS011;8556;52.218;9.884;2023-05-07T11:16:40;14.13;;;10.10;;
16878;SDS011;8556;52.218;9.884;2023-05-07T11:19:09;14.53;;;10.20;;
16878;SDS011;8556;52.218;9.884;2023-05-07T11:21:36;17.20;;;10.55;;
16878;SDS011;8556;52.218;9.884;2023-05-07T11:24:05;12.85;;;8.98;;
16878;SDS011;8556;52.218;9.884;2023-05-07T11:26:41;15.23;;;8.93;;
16878;SDS011;8556;52.218;9.884;2023-05-07T11:29:14;16.13;;;10.13;;
16878;SDS011;8556;52.218;9.884;2023-05-07T11:31:42;14.43;;;10.18;;
16878;SDS011;8556;52.218;9.884;2023-05-07T11:34:09;14.30;;;9.47;;
16878;SDS011;8556;52.218;9.884;2023-05-07T11:36:40;13.55;;;9.43;;
16878;SDS011;8556;52.218;9.884;2023-05-07T11:39:24;16.67;;;9.63;;
16878;SDS011;8556;52.218;9.884;2023-05-07T11:41:56;15.27;;;10.25;;
16878;SDS011;8556;52.218;9.884;2023-05-07T11:44:24;15.20;;;10.23;;
16878;SDS011;8556;52.218;9.884;2023-05-07T11:46:51;13.83;;;10.20;;
16878;SDS011;8556;52.218;9.884;2023-05-07T11:49:18;14.20;;;10.07;;
16878;SDS011;8556;52.218;9.884;2023-05-07T11:51:51;12.73;;;9.50;;
16878;SDS011;8556;52.218;9.884;2023-05-07T11:54:17;15.20;;;10.82;;
16878;SDS011;8556;52.218;9.884;2023-05-07T11:56:46;13.77;;;10.17;;
16878;SDS011;8556;52.218;9.884;2023-05-07T11:59:16;14.30;;;9.93;;
16878;SDS011;8556;52.218;9.884;2023-05-07T12:01:46;13.10;;;9.80;;
16878;SDS011;8556;52.218;9.884;2023-05-07T12:04:13;12.95;;;9.55;;
16878;SDS011;8556;52.218;9.884;2023-05-07T12:06:45;11.82;;;9.15;;
16878;SDS011;8556;52.218;9.884;2023-05-07T12:09:12;12.18;;;9.73;;
16878;SDS011;8556;52.218;9.884;2023-05-07T12:11:39;11.68;;;8.48;;
16878;SDS011;8556;52.218;9.884;2023-05-07T12:14:11;11.27;;;7.82;;
16878;SDS011;8556;52.218;9.884;2023-05-07T12:16:38;11.73;;;8.35;;
16878;SDS011;8556;52.218;9.884;2023-05-07T12:19:07;16.42;;;11.02;;
16878;SDS011;8556;52.218;9.884;2023-05-07T12:21:37;11.70;;;8.80;;
16878;SDS011;8556;52.218;9.884;2023-05-07T12:24:05;11.13;;;8.57;;
16878;SDS011;8556;52.218;9.884;2023-05-07T12:26:32;12.55;;;8.80;;
16878;SDS011;8556;52.218;9.884;2023-05-07T12:29:03;9.77;;;8.20;;
16878;SDS011;8556;52.218;9.884;2023-05-07T12:31:29;10.90;;;8.33;;
16878;SDS011;8556;52.218;9.884;2023-05-07T12:33:56;10.90;;;8.50;;
16878;SDS011;8556;52.218;9.884;2023-05-07T12:36:25;10.90;;;8.17;;
16878;SDS011;8556;52.218;9.884;2023-05-07T12:38:51;11.27;;;8.00;;
16878;SDS011;8556;52.218;9.884;2023-05-07T12:41:20;12.20;;;9.13;;
16878;SDS011;8556;52.218;9.884;2023-05-07T12:43:55;12.48;;;8.70;;
16878;SDS011;8556;52.218;9.884;2023-05-07T12:46:23;12.17;;;8.20;;
16878;SDS011;8556;52.218;9.884;2023-05-07T12:48:52;11.27;;;8.50;;
16878;SDS011;8556;52.218;9.884;2023-05-07T12:51:30;12.88;;;9.48;;
16878;SDS011;8556;52.218;9.884;2023-05-07T12:53:56;12.60;;;9.63;;
16878;SDS011;8556;52.218;9.884;2023-05-07T12:56:26;13.57;;;9.90;;
16878;SDS011;8556;52.218;9.884;2023-05-07T12:58:59;14.13;;;10.30;;
16878;SDS011;8556;52.218;9.884;2023-05-07T13:01:31;13.95;;;9.88;;
16878;SDS011;8556;52.218;9.884;2023-05-07T13:04:16;16.42;;;11.10;;
16878;SDS011;8556;52.218;9.884;2023-05-07T13:06:46;17.63;;;11.80;;
16878;SDS011;8556;52.218;9.884;2023-05-07T13:09:17;16.90;;;11.75;;
16878;SDS011;8556;52.218;9.884;2023-05-07T13:11:52;14.77;;;11.25;;
16878;SDS011;8556;52.218;9.884;2023-05-07T13:14:35;18.17;;;11.80;;
16878;SDS011;8556;52.218;9.884;2023-05-07T13:17:05;16.17;;;11.82;;
16878;SDS011;8556;52.218;9.884;2023-05-07T13:19:32;16.60;;;12.30;;
16878;SDS011;8556;52.218;9.884;2023-05-07T13:22:04;16.95;;;12.10;;
16878;SDS011;8556;52.218;9.884;2023-05-07T13:24:31;18.15;;;13.00;;
16878;SDS011;8556;52.218;9.884;2023-05-07T13:27:08;15.65;;;12.32;;
16878;SDS011;8556;52.218;9.884;2023-05-07T13:29:55;18.45;;;12.23;;
16878;SDS011;8556;52.218;9.884;2023-05-07T13:32:36;15.75;;;11.77;;
16878;SDS011;8556;52.218;9.884;2023-05-07T13:35:09;15.40;;;11.25;;
16878;SDS011;8556;52.218;9.884;2023-05-07T13:37:43;14.90;;;11.43;;
16878;SDS011;8556;52.218;9.884;2023-05-07T13:40:10;16.92;;;12.82;;
16878;SDS011;8556;52.218;9.884;2023-05-07T13:42:41;14.30;;;11.33;;
16878;SDS011;8556;52.218;9.884;2023-05-07T13:47:51;14.25;;;10.88;;
16878;SDS011;8556;52.218;9.884;2023-05-07T13:50:20;13.65;;;10.77;;
16878;SDS011;8556;52.218;9.884;2023-05-07T13:52:50;13.80;;;11.55;;
16878;SDS011;8556;52.218;9.884;2023-05-07T13:55:17;14.27;;;11.25;;
16878;SDS011;8556;52.218;9.884;2023-05-07T13:57:44;12.27;;;10.32;;
16878;SDS011;8556;52.218;9.884;2023-05-07T14:00:11;14.40;;;11.93;;
16878;SDS011;8556;52.218;9.884;2023-05-07T14:02:38;13.80;;;10.82;;
16878;SDS011;8556;52.218;9.884;2023-05-07T14:05:06;13.73;;;10.43;;
16878;SDS011;8556;52.218;9.884;2023-05-07T14:07:34;12.35;;;10.88;;
16878;SDS011;8556;52.218;9.884;2023-05-07T14:10:02;13.70;;;11.10;;
16878;SDS011;8556;52.218;9.884;2023-05-07T14:12:29;12.38;;;10.18;;
16878;SDS011;8556;52.218;9.884;2023-05-07T14:14:56;14.13;;;9.90;;
16878;SDS011;8556;52.218;9.884;2023-05-07T14:17:22;13.55;;;9.77;;
16878;SDS011;8556;52.218;9.884;2023-05-07T14:19:51;12.17;;;9.67;;
16878;SDS011;8556;52.218;9.884;2023-05-07T14:22:19;12.45;;;9.20;;
16878;SDS011;8556;52.218;9.884;2023-05-07T14:24:46;12.57;;;9.33;;
16878;SDS011;8556;52.218;9.884;2023-05-07T14:27:14;14.40;;;10.07;;
16878;SDS011;8556;52.218;9.884;2023-05-07T14:29:41;14.10;;;10.23;;
16878;SDS011;8556;52.218;9.884;2023-05-07T14:32:08;14.30;;;10.02;;
16878;SDS011;8556;52.218;9.884;2023-05-07T14:34:35;14.98;;;11.18;;
16878;SDS011;8556;52.218;9.884;2023-05-07T14:37:05;14.60;;;10.13;;
16878;SDS011;8556;52.218;9.884;2023-05-07T14:39:31;14.60;;;10.73;;
16878;SDS011;8556;52.218;9.884;2023-05-07T14:41:58;14.07;;;10.35;;
16878;SDS011;8556;52.218;9.884;2023-05-07T14:44:27;15.00;;;9.40;;
16878;SDS011;8556;52.218;9.884;2023-05-07T14:46:53;14.85;;;10.90;;
16878;SDS011;8556;52.218;9.884;2023-05-07T14:49:20;13.25;;;9.43;;
16878;SDS011;8556;52.218;9.884;2023-05-07T14:51:47;17.70;;;11.88;;